Sidrolandia, Brazil
Current Conditions -  °F | °C
As of 4:00 AM on Sunday 26 Oct 2014 (Local Time) from SBCG Reporting Station
Broken Clouds Broken Clouds  
Wind Chill: 66°   Ceiling: 10000
Heat Index: 66°   Visibility: 6mi
Dew Point: 64°   Wind: 7mph
Humidity: 94%   Direction: 60°ENE
Pressure: 29.85"   Gusts: NA
Location:  20.93°S, 54.96°W
Report Text: SBCG 260700Z 06006KT 9999 FEW030 BKN100 19/18 Q1011
Loading
Personal Weather Stations






























Interactive Weather Map
Tropical Storm Tracking
New forecast layout! Learn more

10-Day Weather Forecast

Advertisements
Track Severe Weather on mobile